logo
Rechercher aéroport 
image banner adimage banner adimage banner ad
image banner ad

EHG016 - Noordkop

Situé à , Netherlands

ICAO - , IATA -

Données fournies par Airmate  

Information générale

Coordonnées: N52°53'43" E5°0'18"
Élévation : feet MSL.
Variation magnétique : 1.5625° East
Voir autres Aéroports à Noord-Holland

Données opérationnelles

Special qualification required
Heure actuelle UTC:
Heure actuelle locale:
Météo à : EHKD - Den Helder/De Kooy ( 15 km )
METAR: EHKD 231658Z AUTO 20017KT 9999 SCT047 BKN052 BKN190 07/04 Q0989 BLU TEMPO 4000 SHRA SCT012 SCT015CB
TAF: TAF EHKD 231326Z 2314/2402 24020G30KT 9999 FEW025 BKN030 BECMG 2314/2316 21015G25KT TEMPO 2314/2402 4000 SHRA SHRAGS SCT015 SCT020CB PROB30 TEMPO 2316/2322 2000 TSRA BKN012 SCT015CB BECMG 2318/2320 18008KT
Voir NOTAMs / SUP AIP / TFR affectant cet aéroport [VIEW]
Fréquences de communication: [VIEW]

Pistes:

Coordonnées de l'aéroport

Adresse: Netherlands

Vue satellite de EHG016